sensor_id;sensor_type;location;lat;lon;timestamp;P1;durP1;ratioP1;P2;durP2;ratioP2
42616;SDS011;28250;52.320;0.360;2022-09-17T00:00:59;6.75;;;0.90;;
42616;SDS011;28250;52.320;0.360;2022-09-17T00:03:30;6.10;;;1.17;;
42616;SDS011;28250;52.320;0.360;2022-09-17T00:05:59;5.90;;;1.38;;
42616;SDS011;28250;52.320;0.360;2022-09-17T00:08:29;2.97;;;0.90;;
42616;SDS011;28250;52.320;0.360;2022-09-17T00:10:57;7.38;;;1.20;;
42616;SDS011;28250;52.320;0.360;2022-09-17T00:13:31;5.13;;;0.90;;
42616;SDS011;28250;52.320;0.360;2022-09-17T00:15:58;5.25;;;1.02;;
42616;SDS011;28250;52.320;0.360;2022-09-17T00:18:25;5.03;;;0.90;;
42616;SDS011;28250;52.320;0.360;2022-09-17T00:20:51;4.65;;;1.10;;
42616;SDS011;28250;52.320;0.360;2022-09-17T00:23:19;3.25;;;1.05;;
42616;SDS011;28250;52.320;0.360;2022-09-17T00:25:45;5.82;;;0.95;;
42616;SDS011;28250;52.320;0.360;2022-09-17T00:28:12;5.55;;;1.33;;
42616;SDS011;28250;52.320;0.360;2022-09-17T00:30:41;1.85;;;0.77;;
42616;SDS011;28250;52.320;0.360;2022-09-17T00:33:11;4.57;;;1.48;;
42616;SDS011;28250;52.320;0.360;2022-09-17T00:35:41;4.97;;;1.08;;
42616;SDS011;28250;52.320;0.360;2022-09-17T00:38:09;3.08;;;0.95;;
42616;SDS011;28250;52.320;0.360;2022-09-17T00:40:36;4.05;;;1.15;;
42616;SDS011;28250;52.320;0.360;2022-09-17T00:43:04;6.75;;;1.00;;
42616;SDS011;28250;52.320;0.360;2022-09-17T00:45:36;4.68;;;1.30;;
42616;SDS011;28250;52.320;0.360;2022-09-17T00:48:04;2.55;;;1.00;;
42616;SDS011;28250;52.320;0.360;2022-09-17T00:53:07;5.90;;;1.00;;
42616;SDS011;28250;52.320;0.360;2022-09-17T00:55:39;4.78;;;1.30;;
42616;SDS011;28250;52.320;0.360;2022-09-17T00:58:13;4.53;;;0.75;;
42616;SDS011;28250;52.320;0.360;2022-09-17T01:00:43;7.53;;;1.15;;
42616;SDS011;28250;52.320;0.360;2022-09-17T01:03:11;4.63;;;1.30;;
42616;SDS011;28250;52.320;0.360;2022-09-17T01:05:43;7.50;;;1.40;;
42616;SDS011;28250;52.320;0.360;2022-09-17T01:14:01;5.07;;;1.20;;
42616;SDS011;28250;52.320;0.360;2022-09-17T01:25:21;6.28;;;1.30;;
42616;SDS011;28250;52.320;0.360;2022-09-17T01:42:24;4.88;;;1.45;;
42616;SDS011;28250;52.320;0.360;2022-09-17T01:47:38;7.15;;;1.38;;
42616;SDS011;28250;52.320;0.360;2022-09-17T01:50:15;3.53;;;1.20;;
42616;SDS011;28250;52.320;0.360;2022-09-17T01:52:51;3.58;;;1.02;;
42616;SDS011;28250;52.320;0.360;2022-09-17T01:55:21;5.28;;;1.13;;
42616;SDS011;28250;52.320;0.360;2022-09-17T01:57:53;5.93;;;1.17;;
42616;SDS011;28250;52.320;0.360;2022-09-17T02:00:27;8.40;;;1.10;;
42616;SDS011;28250;52.320;0.360;2022-09-17T02:02:58;3.13;;;1.48;;
42616;SDS011;28250;52.320;0.360;2022-09-17T02:05:38;5.35;;;1.50;;
42616;SDS011;28250;52.320;0.360;2022-09-17T02:08:26;5.70;;;1.08;;
42616;SDS011;28250;52.320;0.360;2022-09-17T02:11:09;2.80;;;0.90;;
42616;SDS011;28250;52.320;0.360;2022-09-17T02:16:33;4.80;;;1.20;;
42616;SDS011;28250;52.320;0.360;2022-09-17T02:26:44;4.88;;;1.05;;
42616;SDS011;28250;52.320;0.360;2022-09-17T02:29:40;2.67;;;1.15;;
42616;SDS011;28250;52.320;0.360;2022-09-17T02:32:09;6.13;;;1.35;;
42616;SDS011;28250;52.320;0.360;2022-09-17T02:34:37;6.43;;;1.40;;
42616;SDS011;28250;52.320;0.360;2022-09-17T02:39:32;7.03;;;1.48;;
42616;SDS011;28250;52.320;0.360;2022-09-17T02:42:04;4.20;;;1.05;;
42616;SDS011;28250;52.320;0.360;2022-09-17T02:52:57;3.45;;;1.50;;
42616;SDS011;28250;52.320;0.360;2022-09-17T02:55:58;7.35;;;1.73;;
42616;SDS011;28250;52.320;0.360;2022-09-17T02:58:56;3.45;;;1.30;;
42616;SDS011;28250;52.320;0.360;2022-09-17T03:01:37;3.20;;;1.40;;
42616;SDS011;28250;52.320;0.360;2022-09-17T03:04:09;6.32;;;1.42;;
42616;SDS011;28250;52.320;0.360;2022-09-17T03:06:41;9.48;;;1.50;;
42616;SDS011;28250;52.320;0.360;2022-09-17T03:09:10;6.40;;;1.45;;
42616;SDS011;28250;52.320;0.360;2022-09-17T03:11:38;7.85;;;1.52;;
42616;SDS011;28250;52.320;0.360;2022-09-17T03:14:06;3.13;;;1.55;;
42616;SDS011;28250;52.320;0.360;2022-09-17T03:16:32;2.60;;;1.27;;
42616;SDS011;28250;52.320;0.360;2022-09-17T03:18:59;2.57;;;1.10;;
42616;SDS011;28250;52.320;0.360;2022-09-17T03:21:26;4.93;;;1.20;;
42616;SDS011;28250;52.320;0.360;2022-09-17T03:23:52;5.77;;;1.40;;
42616;SDS011;28250;52.320;0.360;2022-09-17T03:26:19;5.53;;;1.40;;
42616;SDS011;28250;52.320;0.360;2022-09-17T03:28:46;3.77;;;1.33;;
42616;SDS011;28250;52.320;0.360;2022-09-17T03:31:12;4.43;;;1.70;;
42616;SDS011;28250;52.320;0.360;2022-09-17T03:33:39;5.60;;;1.38;;
42616;SDS011;28250;52.320;0.360;2022-09-17T03:36:06;5.25;;;1.48;;
42616;SDS011;28250;52.320;0.360;2022-09-17T03:38:32;5.47;;;1.70;;
42616;SDS011;28250;52.320;0.360;2022-09-17T03:41:01;4.35;;;1.27;;
42616;SDS011;28250;52.320;0.360;2022-09-17T03:43:32;4.57;;;1.48;;
42616;SDS011;28250;52.320;0.360;2022-09-17T03:48:26;2.58;;;1.15;;
42616;SDS011;28250;52.320;0.360;2022-09-17T03:50:54;2.42;;;1.25;;
42616;SDS011;28250;52.320;0.360;2022-09-17T03:53:21;5.55;;;1.60;;
42616;SDS011;28250;52.320;0.360;2022-09-17T03:55:48;2.63;;;1.20;;
42616;SDS011;28250;52.320;0.360;2022-09-17T03:58:15;3.65;;;1.42;;
42616;SDS011;28250;52.320;0.360;2022-09-17T04:00:41;6.93;;;1.70;;
42616;SDS011;28250;52.320;0.360;2022-09-17T04:03:08;5.38;;;2.33;;
42616;SDS011;28250;52.320;0.360;2022-09-17T04:05:35;3.83;;;1.75;;
42616;SDS011;28250;52.320;0.360;2022-09-17T04:08:02;5.30;;;1.43;;
42616;SDS011;28250;52.320;0.360;2022-09-17T04:10:28;5.03;;;1.60;;
42616;SDS011;28250;52.320;0.360;2022-09-17T04:12:55;3.00;;;1.87;;
42616;SDS011;28250;52.320;0.360;2022-09-17T04:15:21;3.55;;;1.40;;
42616;SDS011;28250;52.320;0.360;2022-09-17T04:17:48;3.57;;;1.50;;
42616;SDS011;28250;52.320;0.360;2022-09-17T04:20:15;3.97;;;1.90;;
42616;SDS011;28250;52.320;0.360;2022-09-17T04:22:42;7.18;;;1.40;;
42616;SDS011;28250;52.320;0.360;2022-09-17T04:25:08;2.07;;;1.10;;
42616;SDS011;28250;52.320;0.360;2022-09-17T04:27:36;3.17;;;1.60;;
42616;SDS011;28250;52.320;0.360;2022-09-17T04:30:02;4.53;;;1.87;;
42616;SDS011;28250;52.320;0.360;2022-09-17T04:32:30;4.72;;;1.75;;
42616;SDS011;28250;52.320;0.360;2022-09-17T04:34:57;3.50;;;1.20;;
42616;SDS011;28250;52.320;0.360;2022-09-17T04:37:23;2.03;;;1.08;;
42616;SDS011;28250;52.320;0.360;2022-09-17T04:39:51;5.55;;;1.60;;
42616;SDS011;28250;52.320;0.360;2022-09-17T04:42:17;3.17;;;1.30;;
42616;SDS011;28250;52.320;0.360;2022-09-17T04:44:44;5.97;;;1.40;;
42616;SDS011;28250;52.320;0.360;2022-09-17T04:47:11;3.13;;;1.30;;
42616;SDS011;28250;52.320;0.360;2022-09-17T04:49:37;3.03;;;1.48;;
42616;SDS011;28250;52.320;0.360;2022-09-17T04:52:04;3.57;;;1.43;;
42616;SDS011;28250;52.320;0.360;2022-09-17T04:54:31;2.70;;;1.50;;
42616;SDS011;28250;52.320;0.360;2022-09-17T04:56:58;3.95;;;1.40;;
42616;SDS011;28250;52.320;0.360;2022-09-17T04:59:25;4.82;;;1.45;;
42616;SDS011;28250;52.320;0.360;2022-09-17T05:01:52;4.03;;;1.30;;
42616;SDS011;28250;52.320;0.360;2022-09-17T05:04:19;6.18;;;1.70;;
42616;SDS011;28250;52.320;0.360;2022-09-17T05:06:46;4.97;;;1.50;;
42616;SDS011;28250;52.320;0.360;2022-09-17T05:09:13;3.63;;;1.50;;
42616;SDS011;28250;52.320;0.360;2022-09-17T05:11:39;3.25;;;1.17;;
42616;SDS011;28250;52.320;0.360;2022-09-17T05:14:06;6.05;;;1.45;;
42616;SDS011;28250;52.320;0.360;2022-09-17T05:16:33;6.03;;;1.77;;
42616;SDS011;28250;52.320;0.360;2022-09-17T05:18:59;8.37;;;1.70;;
42616;SDS011;28250;52.320;0.360;2022-09-17T05:21:26;4.93;;;1.50;;
42616;SDS011;28250;52.320;0.360;2022-09-17T05:23:53;5.30;;;1.30;;
42616;SDS011;28250;52.320;0.360;2022-09-17T05:26:20;3.58;;;1.40;;
42616;SDS011;28250;52.320;0.360;2022-09-17T05:28:47;2.60;;;1.20;;
42616;SDS011;28250;52.320;0.360;2022-09-17T05:31:13;4.75;;;1.02;;
42616;SDS011;28250;52.320;0.360;2022-09-17T05:33:40;4.10;;;1.77;;
42616;SDS011;28250;52.320;0.360;2022-09-17T05:36:06;4.97;;;1.55;;
42616;SDS011;28250;52.320;0.360;2022-09-17T05:38:33;3.47;;;1.27;;
42616;SDS011;28250;52.320;0.360;2022-09-17T05:41:02;5.35;;;1.52;;
42616;SDS011;28250;52.320;0.360;2022-09-17T05:43:31;4.63;;;1.75;;
42616;SDS011;28250;52.320;0.360;2022-09-17T05:46:00;3.72;;;1.40;;
42616;SDS011;28250;52.320;0.360;2022-09-17T05:48:28;7.35;;;1.48;;
42616;SDS011;28250;52.320;0.360;2022-09-17T05:50:55;4.15;;;1.45;;
42616;SDS011;28250;52.320;0.360;2022-09-17T05:53:22;4.38;;;1.67;;
42616;SDS011;28250;52.320;0.360;2022-09-17T05:55:48;10.53;;;2.97;;
42616;SDS011;28250;52.320;0.360;2022-09-17T05:58:16;5.18;;;1.80;;
42616;SDS011;28250;52.320;0.360;2022-09-17T06:00:44;5.75;;;1.75;;
42616;SDS011;28250;52.320;0.360;2022-09-17T06:03:14;6.55;;;1.52;;
42616;SDS011;28250;52.320;0.360;2022-09-17T06:05:43;5.50;;;1.50;;
42616;SDS011;28250;52.320;0.360;2022-09-17T06:08:21;4.25;;;1.50;;
42616;SDS011;28250;52.320;0.360;2022-09-17T06:10:47;3.40;;;1.67;;
42616;SDS011;28250;52.320;0.360;2022-09-17T06:13:15;6.97;;;1.30;;
42616;SDS011;28250;52.320;0.360;2022-09-17T06:15:47;4.00;;;1.40;;
42616;SDS011;28250;52.320;0.360;2022-09-17T06:18:16;5.70;;;1.38;;
42616;SDS011;28250;52.320;0.360;2022-09-17T06:20:50;4.55;;;1.25;;
42616;SDS011;28250;52.320;0.360;2022-09-17T06:23:21;2.63;;;0.73;;
42616;SDS011;28250;52.320;0.360;2022-09-17T06:25:49;5.38;;;1.58;;
42616;SDS011;28250;52.320;0.360;2022-09-17T06:28:21;3.72;;;1.05;;
42616;SDS011;28250;52.320;0.360;2022-09-17T06:30:49;4.65;;;1.15;;
42616;SDS011;28250;52.320;0.360;2022-09-17T06:33:19;5.20;;;1.40;;
42616;SDS011;28250;52.320;0.360;2022-09-17T06:38:13;4.68;;;1.30;;
42616;SDS011;28250;52.320;0.360;2022-09-17T06:40:40;2.97;;;1.30;;
42616;SDS011;28250;52.320;0.360;2022-09-17T06:43:07;4.28;;;1.88;;
42616;SDS011;28250;52.320;0.360;2022-09-17T06:45:33;4.72;;;2.05;;
42616;SDS011;28250;52.320;0.360;2022-09-17T06:48:02;5.35;;;1.50;;
42616;SDS011;28250;52.320;0.360;2022-09-17T06:50:30;2.55;;;1.38;;
42616;SDS011;28250;52.320;0.360;2022-09-17T06:52:56;6.22;;;1.48;;
42616;SDS011;28250;52.320;0.360;2022-09-17T06:55:23;8.73;;;1.80;;
42616;SDS011;28250;52.320;0.360;2022-09-17T06:57:50;5.43;;;1.48;;
42616;SDS011;28250;52.320;0.360;2022-09-17T07:00:17;6.77;;;1.67;;
42616;SDS011;28250;52.320;0.360;2022-09-17T07:02:53;5.33;;;1.67;;
42616;SDS011;28250;52.320;0.360;2022-09-17T07:05:22;2.75;;;1.10;;
42616;SDS011;28250;52.320;0.360;2022-09-17T07:07:50;5.05;;;1.48;;
42616;SDS011;28250;52.320;0.360;2022-09-17T07:12:44;4.18;;;1.25;;
42616;SDS011;28250;52.320;0.360;2022-09-17T07:15:11;5.43;;;1.30;;
42616;SDS011;28250;52.320;0.360;2022-09-17T07:17:41;3.67;;;1.48;;
42616;SDS011;28250;52.320;0.360;2022-09-17T07:20:09;3.35;;;1.23;;
42616;SDS011;28250;52.320;0.360;2022-09-17T07:25:03;3.90;;;1.65;;
42616;SDS011;28250;52.320;0.360;2022-09-17T07:27:31;4.75;;;0.90;;
42616;SDS011;28250;52.320;0.360;2022-09-17T07:29:58;8.77;;;2.35;;
42616;SDS011;28250;52.320;0.360;2022-09-17T07:32:24;3.33;;;1.40;;
42616;SDS011;28250;52.320;0.360;2022-09-17T07:34:54;9.05;;;1.33;;
42616;SDS011;28250;52.320;0.360;2022-09-17T07:37:22;4.72;;;2.00;;
42616;SDS011;28250;52.320;0.360;2022-09-17T07:39:50;3.85;;;1.00;;
42616;SDS011;28250;52.320;0.360;2022-09-17T07:42:16;4.30;;;1.23;;
42616;SDS011;28250;52.320;0.360;2022-09-17T07:44:43;3.22;;;1.40;;
42616;SDS011;28250;52.320;0.360;2022-09-17T07:47:11;4.60;;;1.30;;
42616;SDS011;28250;52.320;0.360;2022-09-17T07:49:39;4.85;;;1.30;;
42616;SDS011;28250;52.320;0.360;2022-09-17T07:52:05;6.80;;;1.20;;
42616;SDS011;28250;52.320;0.360;2022-09-17T07:54:32;6.68;;;1.17;;
42616;SDS011;28250;52.320;0.360;2022-09-17T07:57:02;4.00;;;1.10;;
42616;SDS011;28250;52.320;0.360;2022-09-17T07:59:29;6.95;;;1.20;;
42616;SDS011;28250;52.320;0.360;2022-09-17T08:01:56;2.00;;;1.10;;
42616;SDS011;28250;52.320;0.360;2022-09-17T08:04:22;2.00;;;0.85;;
42616;SDS011;28250;52.320;0.360;2022-09-17T08:06:49;4.78;;;1.20;;
42616;SDS011;28250;52.320;0.360;2022-09-17T08:09:16;1.90;;;1.05;;
42616;SDS011;28250;52.320;0.360;2022-09-17T08:14:10;2.38;;;0.63;;
42616;SDS011;28250;52.320;0.360;2022-09-17T08:16:40;2.63;;;0.77;;
42616;SDS011;28250;52.320;0.360;2022-09-17T08:19:06;4.07;;;0.68;;
42616;SDS011;28250;52.320;0.360;2022-09-17T08:21:36;1.27;;;0.30;;
42616;SDS011;28250;52.320;0.360;2022-09-17T08:24:03;3.25;;;0.68;;
42616;SDS011;28250;52.320;0.360;2022-09-17T08:26:30;2.27;;;0.47;;
42616;SDS011;28250;52.320;0.360;2022-09-17T08:28:58;2.03;;;0.50;;
42616;SDS011;28250;52.320;0.360;2022-09-17T08:31:25;2.92;;;0.65;;
42616;SDS011;28250;52.320;0.360;2022-09-17T08:33:53;1.55;;;0.52;;
42616;SDS011;28250;52.320;0.360;2022-09-17T08:36:19;3.03;;;0.50;;
42616;SDS011;28250;52.320;0.360;2022-09-17T08:38:51;1.75;;;0.60;;
42616;SDS011;28250;52.320;0.360;2022-09-17T08:41:23;3.75;;;0.70;;
42616;SDS011;28250;52.320;0.360;2022-09-17T08:46:47;1.60;;;0.73;;
42616;SDS011;28250;52.320;0.360;2022-09-17T08:52:08;1.75;;;0.50;;
42616;SDS011;28250;52.320;0.360;2022-09-17T08:55:27;2.75;;;0.70;;
42616;SDS011;28250;52.320;0.360;2022-09-17T09:00:56;3.95;;;1.20;;
42616;SDS011;28250;52.320;0.360;2022-09-17T09:06:10;0.70;;;0.60;;
42616;SDS011;28250;52.320;0.360;2022-09-17T09:11:16;2.50;;;0.50;;
42616;SDS011;28250;52.320;0.360;2022-09-17T09:13:53;1.73;;;0.45;;
42616;SDS011;28250;52.320;0.360;2022-09-17T09:16:33;2.00;;;0.40;;
42616;SDS011;28250;52.320;0.360;2022-09-17T09:24:33;1.27;;;0.40;;
42616;SDS011;28250;52.320;0.360;2022-09-17T09:27:32;2.65;;;0.60;;
42616;SDS011;28250;52.320;0.360;2022-09-17T09:30:17;3.00;;;0.40;;
42616;SDS011;28250;52.320;0.360;2022-09-17T09:35:43;1.40;;;0.40;;
42616;SDS011;28250;52.320;0.360;2022-09-17T09:40:56;3.65;;;0.50;;
42616;SDS011;28250;52.320;0.360;2022-09-17T09:43:38;3.80;;;0.68;;
42616;SDS011;28250;52.320;0.360;2022-09-17T10:08:29;3.28;;;0.73;;
42616;SDS011;28250;52.320;0.360;2022-09-17T10:11:03;1.60;;;0.40;;
42616;SDS011;28250;52.320;0.360;2022-09-17T10:13:36;1.23;;;0.35;;
42616;SDS011;28250;52.320;0.360;2022-09-17T10:16:21;2.80;;;1.00;;
42616;SDS011;28250;52.320;0.360;2022-09-17T10:21:44;3.35;;;0.60;;
42616;SDS011;28250;52.320;0.360;2022-09-17T10:24:19;6.53;;;1.10;;
42616;SDS011;28250;52.320;0.360;2022-09-17T10:26:50;2.58;;;0.47;;
42616;SDS011;28250;52.320;0.360;2022-09-17T10:29:25;4.25;;;1.00;;
42616;SDS011;28250;52.320;0.360;2022-09-17T10:31:53;3.10;;;0.85;;
42616;SDS011;28250;52.320;0.360;2022-09-17T10:34:23;2.22;;;0.80;;
42616;SDS011;28250;52.320;0.360;2022-09-17T10:36:53;4.10;;;1.00;;
42616;SDS011;28250;52.320;0.360;2022-09-17T10:42:13;4.60;;;0.75;;
42616;SDS011;28250;52.320;0.360;2022-09-17T10:45:02;3.70;;;0.50;;
42616;SDS011;28250;52.320;0.360;2022-09-17T10:47:30;1.33;;;0.40;;
42616;SDS011;28250;52.320;0.360;2022-09-17T10:50:03;3.17;;;0.50;;
42616;SDS011;28250;52.320;0.360;2022-09-17T10:52:45;2.65;;;0.47;;
42616;SDS011;28250;52.320;0.360;2022-09-17T11:03:25;1.30;;;0.40;;
42616;SDS011;28250;52.320;0.360;2022-09-17T11:06:18;1.48;;;0.47;;
42616;SDS011;28250;52.320;0.360;2022-09-17T11:11:42;4.75;;;1.10;;
42616;SDS011;28250;52.320;0.360;2022-09-17T11:17:18;3.28;;;0.50;;
42616;SDS011;28250;52.320;0.360;2022-09-17T11:20:19;2.95;;;0.73;;
42616;SDS011;28250;52.320;0.360;2022-09-17T11:26:29;4.45;;;0.77;;
42616;SDS011;28250;52.320;0.360;2022-09-17T11:29:11;2.33;;;0.40;;
42616;SDS011;28250;52.320;0.360;2022-09-17T11:31:52;1.02;;;0.30;;
42616;SDS011;28250;52.320;0.360;2022-09-17T11:37:44;1.45;;;0.30;;
42616;SDS011;28250;52.320;0.360;2022-09-17T11:42:54;0.98;;;0.50;;
42616;SDS011;28250;52.320;0.360;2022-09-17T11:45:49;2.47;;;0.30;;
42616;SDS011;28250;52.320;0.360;2022-09-17T11:48:28;2.42;;;0.70;;
42616;SDS011;28250;52.320;0.360;2022-09-17T11:53:43;2.53;;;0.50;;
42616;SDS011;28250;52.320;0.360;2022-09-17T11:56:26;3.58;;;0.60;;
42616;SDS011;28250;52.320;0.360;2022-09-17T12:04:04;1.38;;;0.20;;
42616;SDS011;28250;52.320;0.360;2022-09-17T12:06:37;2.47;;;0.50;;
42616;SDS011;28250;52.320;0.360;2022-09-17T12:09:16;1.27;;;0.30;;
42616;SDS011;28250;52.320;0.360;2022-09-17T12:14:20;1.13;;;0.40;;
42616;SDS011;28250;52.320;0.360;2022-09-17T12:16:56;1.23;;;0.40;;
42616;SDS011;28250;52.320;0.360;2022-09-17T12:24:48;2.15;;;0.50;;
42616;SDS011;28250;52.320;0.360;2022-09-17T12:30:30;1.30;;;0.40;;
42616;SDS011;28250;52.320;0.360;2022-09-17T12:33:06;1.17;;;0.30;;
42616;SDS011;28250;52.320;0.360;2022-09-17T12:56:09;2.25;;;0.20;;
42616;SDS011;28250;52.320;0.360;2022-09-17T12:59:02;1.55;;;0.30;;
42616;SDS011;28250;52.320;0.360;2022-09-17T13:18:47;0.82;;;0.30;;
42616;SDS011;28250;52.320;0.360;2022-09-17T13:24:15;1.50;;;0.50;;
42616;SDS011;28250;52.320;0.360;2022-09-17T13:26:44;2.67;;;0.85;;
42616;SDS011;28250;52.320;0.360;2022-09-17T13:29:11;3.97;;;0.45;;
42616;SDS011;28250;52.320;0.360;2022-09-17T13:37:35;1.70;;;0.20;;
42616;SDS011;28250;52.320;0.360;2022-09-17T13:40:04;2.30;;;0.35;;
42616;SDS011;28250;52.320;0.360;2022-09-17T13:43:07;1.83;;;0.30;;
42616;SDS011;28250;52.320;0.360;2022-09-17T13:48:23;2.83;;;0.63;;
42616;SDS011;28250;52.320;0.360;2022-09-17T13:50:54;2.78;;;0.32;;
42616;SDS011;28250;52.320;0.360;2022-09-17T13:53:22;1.77;;;0.35;;
42616;SDS011;28250;52.320;0.360;2022-09-17T13:58:25;3.67;;;0.85;;
42616;SDS011;28250;52.320;0.360;2022-09-17T14:00:59;3.22;;;0.30;;
42616;SDS011;28250;52.320;0.360;2022-09-17T14:21:41;3.35;;;0.65;;
42616;SDS011;28250;52.320;0.360;2022-09-17T14:35:42;2.33;;;0.38;;
42616;SDS011;28250;52.320;0.360;2022-09-17T14:38:18;2.40;;;0.50;;
42616;SDS011;28250;52.320;0.360;2022-09-17T14:43:49;3.97;;;0.50;;
42616;SDS011;28250;52.320;0.360;2022-09-17T14:48:52;2.53;;;0.40;;
42616;SDS011;28250;52.320;0.360;2022-09-17T14:56:40;2.83;;;0.35;;
42616;SDS011;28250;52.320;0.360;2022-09-17T14:59:18;1.00;;;0.40;;
42616;SDS011;28250;52.320;0.360;2022-09-17T15:01:54;1.67;;;0.30;;
42616;SDS011;28250;52.320;0.360;2022-09-17T15:04:23;3.92;;;0.60;;
42616;SDS011;28250;52.320;0.360;2022-09-17T15:06:52;3.63;;;1.10;;
42616;SDS011;28250;52.320;0.360;2022-09-17T15:09:33;2.67;;;0.40;;
42616;SDS011;28250;52.320;0.360;2022-09-17T15:12:00;1.40;;;0.60;;
42616;SDS011;28250;52.320;0.360;2022-09-17T15:16:57;1.55;;;0.40;;
42616;SDS011;28250;52.320;0.360;2022-09-17T15:19:29;2.95;;;0.45;;
42616;SDS011;28250;52.320;0.360;2022-09-17T15:22:09;0.80;;;0.40;;
42616;SDS011;28250;52.320;0.360;2022-09-17T15:24:48;1.48;;;0.40;;
42616;SDS011;28250;52.320;0.360;2022-09-17T15:27:36;1.13;;;0.50;;
42616;SDS011;28250;52.320;0.360;2022-09-17T15:32:41;1.98;;;0.40;;
42616;SDS011;28250;52.320;0.360;2022-09-17T15:45:53;3.05;;;0.43;;
42616;SDS011;28250;52.320;0.360;2022-09-17T15:50:53;0.65;;;0.30;;
42616;SDS011;28250;52.320;0.360;2022-09-17T16:06:47;0.82;;;0.50;;
42616;SDS011;28250;52.320;0.360;2022-09-17T16:12:20;1.50;;;0.50;;
42616;SDS011;28250;52.320;0.360;2022-09-17T16:14:50;2.10;;;0.35;;
42616;SDS011;28250;52.320;0.360;2022-09-17T16:17:22;1.73;;;0.40;;
42616;SDS011;28250;52.320;0.360;2022-09-17T16:19:53;2.47;;;0.30;;
42616;SDS011;28250;52.320;0.360;2022-09-17T16:22:21;1.35;;;0.45;;
42616;SDS011;28250;52.320;0.360;2022-09-17T16:24:48;1.52;;;0.55;;
42616;SDS011;28250;52.320;0.360;2022-09-17T16:27:17;3.03;;;0.33;;
42616;SDS011;28250;52.320;0.360;2022-09-17T16:29:48;1.83;;;0.95;;
42616;SDS011;28250;52.320;0.360;2022-09-17T16:32:17;0.30;;;0.20;;
42616;SDS011;28250;52.320;0.360;2022-09-17T16:34:43;2.35;;;0.38;;
42616;SDS011;28250;52.320;0.360;2022-09-17T16:37:10;1.42;;;0.60;;
42616;SDS011;28250;52.320;0.360;2022-09-17T16:39:37;0.93;;;0.20;;
42616;SDS011;28250;52.320;0.360;2022-09-17T16:42:03;1.37;;;0.40;;
42616;SDS011;28250;52.320;0.360;2022-09-17T16:44:30;2.30;;;0.40;;
42616;SDS011;28250;52.320;0.360;2022-09-17T16:46:56;2.13;;;0.35;;
42616;SDS011;28250;52.320;0.360;2022-09-17T16:49:23;3.22;;;0.63;;
42616;SDS011;28250;52.320;0.360;2022-09-17T16:51:50;2.27;;;0.47;;
42616;SDS011;28250;52.320;0.360;2022-09-17T16:54:16;0.80;;;0.30;;
42616;SDS011;28250;52.320;0.360;2022-09-17T16:56:43;0.90;;;0.27;;
42616;SDS011;28250;52.320;0.360;2022-09-17T16:59:10;0.43;;;0.30;;
42616;SDS011;28250;52.320;0.360;2022-09-17T17:01:36;1.02;;;0.32;;
42616;SDS011;28250;52.320;0.360;2022-09-17T17:04:03;0.77;;;0.30;;
42616;SDS011;28250;52.320;0.360;2022-09-17T17:06:30;0.93;;;0.40;;
42616;SDS011;28250;52.320;0.360;2022-09-17T17:08:57;1.52;;;0.40;;
42616;SDS011;28250;52.320;0.360;2022-09-17T17:11:27;0.60;;;0.40;;
42616;SDS011;28250;52.320;0.360;2022-09-17T17:13:53;4.15;;;0.65;;
42616;SDS011;28250;52.320;0.360;2022-09-17T17:16:21;0.32;;;0.30;;
42616;SDS011;28250;52.320;0.360;2022-09-17T17:18:52;2.10;;;0.52;;
42616;SDS011;28250;52.320;0.360;2022-09-17T17:21:20;1.90;;;0.40;;
42616;SDS011;28250;52.320;0.360;2022-09-17T17:23:46;2.05;;;0.40;;
42616;SDS011;28250;52.320;0.360;2022-09-17T17:26:14;1.90;;;0.50;;
42616;SDS011;28250;52.320;0.360;2022-09-17T17:28:41;2.53;;;0.50;;
42616;SDS011;28250;52.320;0.360;2022-09-17T17:31:10;3.03;;;0.30;;
42616;SDS011;28250;52.320;0.360;2022-09-17T17:33:37;1.80;;;0.50;;
42616;SDS011;28250;52.320;0.360;2022-09-17T17:36:04;1.45;;;0.43;;
42616;SDS011;28250;52.320;0.360;2022-09-17T17:38:31;0.80;;;0.57;;
42616;SDS011;28250;52.320;0.360;2022-09-17T17:41:05;1.80;;;0.50;;
42616;SDS011;28250;52.320;0.360;2022-09-17T17:43:36;0.43;;;0.43;;
42616;SDS011;28250;52.320;0.360;2022-09-17T17:46:04;2.17;;;0.40;;
42616;SDS011;28250;52.320;0.360;2022-09-17T17:48:33;0.55;;;0.40;;
42616;SDS011;28250;52.320;0.360;2022-09-17T17:51:02;1.13;;;0.60;;
42616;SDS011;28250;52.320;0.360;2022-09-17T17:53:31;1.30;;;0.60;;
42616;SDS011;28250;52.320;0.360;2022-09-17T17:55:59;1.58;;;0.40;;
42616;SDS011;28250;52.320;0.360;2022-09-17T17:58:29;0.65;;;0.40;;
42616;SDS011;28250;52.320;0.360;2022-09-17T18:00:55;0.50;;;0.50;;
42616;SDS011;28250;52.320;0.360;2022-09-17T18:03:22;0.52;;;0.40;;
42616;SDS011;28250;52.320;0.360;2022-09-17T18:05:51;1.88;;;0.85;;
42616;SDS011;28250;52.320;0.360;2022-09-17T18:08:22;2.40;;;0.38;;
42616;SDS011;28250;52.320;0.360;2022-09-17T18:10:50;1.88;;;0.50;;
42616;SDS011;28250;52.320;0.360;2022-09-17T18:13:19;3.90;;;1.05;;
42616;SDS011;28250;52.320;0.360;2022-09-17T18:15:50;2.75;;;1.00;;
42616;SDS011;28250;52.320;0.360;2022-09-17T18:18:21;0.60;;;0.60;;
42616;SDS011;28250;52.320;0.360;2022-09-17T18:20:49;3.70;;;1.45;;
42616;SDS011;28250;52.320;0.360;2022-09-17T18:23:19;4.63;;;1.30;;
42616;SDS011;28250;52.320;0.360;2022-09-17T18:28:34;3.78;;;1.30;;
42616;SDS011;28250;52.320;0.360;2022-09-17T18:31:05;3.88;;;1.55;;
42616;SDS011;28250;52.320;0.360;2022-09-17T18:33:34;3.28;;;1.40;;
42616;SDS011;28250;52.320;0.360;2022-09-17T18:36:02;4.23;;;1.50;;
42616;SDS011;28250;52.320;0.360;2022-09-17T18:38:31;2.17;;;1.25;;
42616;SDS011;28250;52.320;0.360;2022-09-17T18:41:04;2.33;;;1.23;;
42616;SDS011;28250;52.320;0.360;2022-09-17T18:43:33;4.53;;;1.33;;
42616;SDS011;28250;52.320;0.360;2022-09-17T18:46:01;3.85;;;1.35;;
42616;SDS011;28250;52.320;0.360;2022-09-17T18:48:28;4.78;;;2.08;;
42616;SDS011;28250;52.320;0.360;2022-09-17T18:50:57;5.20;;;1.98;;
42616;SDS011;28250;52.320;0.360;2022-09-17T18:53:26;5.10;;;1.77;;
42616;SDS011;28250;52.320;0.360;2022-09-17T18:55:56;2.72;;;1.90;;
42616;SDS011;28250;52.320;0.360;2022-09-17T18:58:29;2.58;;;1.50;;
42616;SDS011;28250;52.320;0.360;2022-09-17T19:00:55;3.50;;;1.40;;
42616;SDS011;28250;52.320;0.360;2022-09-17T19:03:22;3.55;;;1.40;;
42616;SDS011;28250;52.320;0.360;2022-09-17T19:05:49;4.73;;;1.57;;
42616;SDS011;28250;52.320;0.360;2022-09-17T19:08:19;4.73;;;2.70;;
42616;SDS011;28250;52.320;0.360;2022-09-17T19:10:50;4.53;;;3.15;;
42616;SDS011;28250;52.320;0.360;2022-09-17T19:13:17;4.82;;;2.58;;
42616;SDS011;28250;52.320;0.360;2022-09-17T19:15:45;3.17;;;2.22;;
42616;SDS011;28250;52.320;0.360;2022-09-17T19:20:39;4.63;;;3.00;;
42616;SDS011;28250;52.320;0.360;2022-09-17T19:23:06;1.33;;;1.20;;
42616;SDS011;28250;52.320;0.360;2022-09-17T19:25:34;3.13;;;1.48;;
42616;SDS011;28250;52.320;0.360;2022-09-17T19:28:02;1.73;;;1.10;;
42616;SDS011;28250;52.320;0.360;2022-09-17T19:30:31;5.03;;;0.90;;
42616;SDS011;28250;52.320;0.360;2022-09-17T19:32:59;2.38;;;1.17;;
42616;SDS011;28250;52.320;0.360;2022-09-17T19:35:26;1.48;;;0.80;;
42616;SDS011;28250;52.320;0.360;2022-09-17T19:37:56;1.90;;;0.80;;
42616;SDS011;28250;52.320;0.360;2022-09-17T19:40:23;2.13;;;0.73;;
42616;SDS011;28250;52.320;0.360;2022-09-17T19:42:51;2.25;;;0.77;;
42616;SDS011;28250;52.320;0.360;2022-09-17T19:45:19;2.28;;;1.13;;
42616;SDS011;28250;52.320;0.360;2022-09-17T19:47:47;4.18;;;1.80;;
42616;SDS011;28250;52.320;0.360;2022-09-17T19:50:17;2.35;;;1.10;;
42616;SDS011;28250;52.320;0.360;2022-09-17T19:52:43;3.15;;;1.25;;
42616;SDS011;28250;52.320;0.360;2022-09-17T19:55:10;1.77;;;0.60;;
42616;SDS011;28250;52.320;0.360;2022-09-17T19:57:37;2.30;;;0.70;;
42616;SDS011;28250;52.320;0.360;2022-09-17T20:00:04;1.80;;;0.80;;
42616;SDS011;28250;52.320;0.360;2022-09-17T20:02:36;2.45;;;0.68;;